Logo AVAMET
Benvolgut visitant, si us plau, ingressa Recuperar contrasenya

Inforatge Castelló de la Plana Palau Festa

Dades diàries. Acumulats / Últims 30 dies disponibles

Data Temperatura (°C) Humitat rel. (%) Pressió rel. (hPa) Vent (km/h) Precipitació
Mínima Mitjana Màxima Amplitud
tèrmica
Mínima Mitjana Màxima Mínima Mitjana Màxima Predom. Mitjana Ràfega
màxima
Total
(mm)
Índex-n
Mínima Mitjana Màxima Mínima Mitjana Màxima n
0 a 1
P0 max
mm 5'
Dades mensuals acumulades fins l'últim dia disponible
10/2019 17,0 19,3 22,1 22,3 22,8 25,5 27,7 10,7 37 71 87 1.014 1.014 1.014   5,9 35,4 0,2
Dades anuals acumulades fins l'últim dia disponible
2019 2,3 15,5 26,4 19,1 12,7 22,8 35,9 33,6 17 65 94 1.014 1.016 1.016   7,5 79,6 160,2
Últims 30 dies disponibles
14-10-2019 19,6     21,9     25,7 6,1 61 79 86 1.014 1.014 1.014 SSO 4,1 22,5 0,2
13-10-2019 20,4     22,7     25,3 4,9 72 80 84 1.014 1.014 1.014 W 4,0 22,5 0,0
12-10-2019 20,2     22,5     24,9 4,7 71 81 85 1.014 1.014 1.014 E 5,5 24,1 0,0
11-10-2019 20,5     22,4     25,9 5,4 63 76 82 1.014 1.014 1.014 SSE 7,1 35,4 0,0
10-10-2019 20,2     21,4     22,8 2,6 52 70 84 1.014 1.014 1.014 ENE 7,6 33,8 0,0
09-10-2019 20,1     23,0     26,7 6,6 68 77 85 1.014 1.014 1.014 S 4,5 22,2 0,0
08-10-2019 17,6     21,7     24,9 7,3 63 74 83 1.014 1.014 1.014 SSO 6,8 33,9 0,0
07-10-2019 18,3     21,7     24,8 6,5 42 66 85 1.014 1.014 1.014 S 6,1 31,5 0,0
06-10-2019 18,5     21,9     25,1 6,6 70 78 86 1.014 1.014 1.014 S 4,2 22,6 0,0
05-10-2019 19,0     22,3     25,7 6,7 58 67 75 1.014 1.014 1.014 SSE 5,6 24,1 0,0
04-10-2019 17,0     22,0     26,6 9,6 41 61 74 1.014 1.014 1.014 SSO 6,6 27,8 0,0
03-10-2019 17,6     21,3     24,5 6,9 40 54 76 1.014 1.014 1.014 SSO 7,2 33,9 0,0
02-10-2019 22,1     24,6     27,7 5,6 37 48 77 1.014 1.014 1.014 S 8,4 35,4 0,0
01-10-2019 19,3     23,4     27,0 7,7 65 80 87 1.014 1.014 1.014 SSE 4,3 19,3 0,0
30-09-2019 20,4     23,5     26,4 6,0 68 82 92 1.014 1.014 1.014 E 8,2 31,5 0,0
29-09-2019 20,4     23,6     26,3 5,9 68 78 86 1.014 1.014 1.014 S 5,1 27,8 0,0
28-09-2019 21,5     23,7     26,3 4,8 71 79 87 1.014 1.014 1.014 SE 5,7 25,9 0,0
27-09-2019 20,1     23,4     26,1 6,0 70 81 86 1.014 1.014 1.014 ESE 3,8 22,6 0,0
26-09-2019 19,2     23,0     26,3 7,1 54 75 84 1.014 1.014 1.014 S 6,3 32,2 0,0
25-09-2019 21,9     24,0     26,1 4,2 56 66 79 1.014 1.014 1.014 SSE 6,9 32,2 0,0
24-09-2019 18,9     23,7     28,6 9,7 47 69 82 1.014 1.014 1.014 SSE 4,9 22,2 0,0
23-09-2019 19,7     23,0     26,1 6,4 48 67 81 1.014 1.014 1.014 SSO 7,5 25,9 0,0
22-09-2019 21,8     25,6     30,6 8,8 46 70 88 1.014 1.014 1.014 SSE 7,0 37,0 0,0
21-09-2019 21,3     23,7     27,3 6,0 57 77 87 1.014 1.014 1.014 SE 6,3 29,6 1,2
20-09-2019 21,8     23,3     25,8 4,0 71 80 89 1.014 1.014 1.014 SE 7,8 32,2 3,0
19-09-2019 19,9     23,6     27,6 7,7 63 74 82 1.014 1.014 1.014 SSE 6,0 27,8 0,0
18-09-2019 21,3     24,8     28,4 7,1 52 67 79 1.014 1.014 1.014 S 4,9 22,6 0,0
17-09-2019 20,1     24,0     28,1 8,0 49 72 86 1.014 1.014 1.014 S 4,4 22,6 0,0
16-09-2019 22,2     24,0     26,7 4,5 59 76 85 1.014 1.014 1.014 E 7,8 32,2 0,0
15-09-2019 22,3     23,9     27,3 5,0 63 75 87 1.014 1.014 1.014 NE 13,4 42,6 0,0
Últims 13 mesos disponibles
09/2019 15,3 20,7 23,9 23,7 21,9 26,8 30,6 15,3 50 70 82 1.014 1.015 1.016 SE 7,7 56,3 65,6
08/2019 18,5 22,7 26,4 25,9 25,7 29,0 31,9 13,4 54 72 79 1.016 1.016 1.016 S 6,7 61,1 17,8
07/2019 21,6 23,1 25,3 26,5 27,1 29,4 33,2 11,6 49 67 78 1.016 1.016 1.016 SE 7,1 51,9 8,6
06/2019 12,8 18,9 23,1 22,4 20,7 25,8 35,9 23,1 41 64 79 1.016 1.016 1.016 S 8,1 59,6 0,0
05/2019 10,4 14,6 17,7 18,0 17,3 21,5 28,2 17,8 50 67 81 1.016 1.016 1.016 SE 7,8 53,7 13,0
04/2019 7,8 12,1 14,5 15,5 15,5 19,3 26,4 18,6 44 63 85 1.016 1.016 1.016 SSO 10,6 66,7 44,0
03/2019 7,7 10,4 13,2 14,5 13,4 18,8 25,2 17,5 41 59 78 1.016 1.016 1.016 S 7,0 53,7 10,4
02/2019 2,3 7,9 11,8 12,3 12,9 16,9 22,9 20,6 28 65 79 1.016 1.016 1.016 SSO 6,3 74,1 0,0
01/2019 3,7 7,2 10,4 11,6 12,7 16,5 22,5 18,8 37 57 78 1.016 1.016 1.016 SO 7,0 79,6 0,6
12/2018 6,6 10,0 12,7 13,6 14,1 18,0 24,2 17,6 51 69 83 1.016 1.016 1.016 SSO 4,1 68,5 7,2
11/2018 7,8 11,7 16,8 15,0 15,1 18,9 22,0 14,2 52 71 86 1.007 1.016 1.023 SO 6,3 48,3 89,4
10/2018 7,9 15,5 19,8 19,0 14,9 22,6 28,2 20,3 38 68 87 1.001 1.021 1.026 S 6,6 63,0 136,8
09/2018 18,0 21,2 23,8 24,4 24,6 27,4 30,7 12,7 52 73 82 1.014 1.022 1.025 6,4 50,0 66,2
Tots els anys disponibles
Temperatura (°C)
Humitat relativa (%)
Velocitat del vent i ràfega màxima (km/h)
Direcció del vent (°)
Pressió (hPa)
Precipitació (mm)
Nota sobre les dades: s'avisa a l'usuari de la provisionalitat i no oficialitat d'aquestes dades
Logo AVAMET blanc
Web allotjada a Sollutia
Llicència de Creative CommonsLa web d'AVAMET i els seus continguts estan subjectes a una llicència de
Reconeixement - No Comercial - Compartir igual
Últimes estacions: Villena - Villa Ventín (Soci), Benissa - Convent (Soci), Xàbia Fontanella (Soci), Castielfabib (Soci), Sant Mateu (Soci), Vallada (Soci), Agullent (Soci), - - -